Terminal Aerodrome Forecast
Issued by NWS Flagstaff, AZ

Home | Current Version | Previous Version | Text Only | Print | Product List | Glossary On
Versions: 1 2 3 4 5 6 7 8 9 10 11 12 13 14 15 16
720
FTUS45 KFGZ 230535
TAFINW
TAF
KINW 230535Z 2306/2406 13010KT P6SM SCT040 OVC060
     FM230800 18014G25KT P6SM SCT030 BKN050
     FM231500 19018G30KT 4SM -SHRA BKN050=

USA.gov is the U.S. government's official web portal to all federal, state and local government web resources and services.